Time;durP1;ratioP1;P1;durP2;ratioP2;P2;SDS_P1;SDS_P2;PMS_P1;PMS_P2;Temp;Humidity;BMP_temperature;BMP_pressure;BME280_temperature;BME280_humidity;BME280_pressure;Samples;Min_cycle;Max_cycle;Signal;HPM_P1;HPM_P2
2023/11/24 00:00:27;;;;;;;3.08;1.30;;;15.90;69.10;;;;;;5053155;28;20665;-63
2023/11/24 00:02:52;;;;;;;4.32;1.80;;;15.90;69.00;;;;;;5052680;28;20262;-62
2023/11/24 00:05:18;;;;;;;3.25;1.73;;;15.90;69.00;;;;;;5053248;28;20212;-63
2023/11/24 00:07:45;;;;;;;3.42;1.60;;;15.90;69.00;;;;;;5053401;28;20203;-63
2023/11/24 00:10:11;;;;;;;2.80;1.38;;;15.80;69.10;;;;;;5052756;28;20228;-63
2023/11/24 00:12:37;;;;;;;4.35;1.70;;;15.90;69.30;;;;;;5052653;28;20167;-62
2023/11/24 00:15:02;;;;;;;2.40;1.30;;;15.90;69.20;;;;;;5053165;28;20198;-62
2023/11/24 00:17:28;;;;;;;6.88;1.63;;;15.90;69.20;;;;;;5052312;28;20179;-62
2023/11/24 00:19:53;;;;;;;5.88;1.88;;;15.80;69.10;;;;;;5053242;28;20175;-63
2023/11/24 00:22:19;;;;;;;3.10;1.20;;;15.80;69.20;;;;;;5052880;28;20163;-62
2023/11/24 00:24:44;;;;;;;2.30;1.10;;;15.80;69.20;;;;;;5052342;28;20217;-63
2023/11/24 00:27:10;;;;;;;6.00;1.77;;;15.80;69.20;;;;;;5052700;28;20514;-63
2023/11/24 00:29:36;;;;;;;3.28;1.38;;;15.80;69.20;;;;;;5052651;28;20266;-63
2023/11/24 00:32:04;;;;;;;2.25;1.38;;;15.80;69.20;;;;;;5052136;28;20258;-63
2023/11/24 00:34:30;;;;;;;2.53;1.20;;;15.80;69.10;;;;;;5052401;28;20221;-63
2023/11/24 00:36:58;;;;;;;2.35;1.40;;;15.70;69.10;;;;;;5052791;28;20540;-63
2023/11/24 00:39:23;;;;;;;3.85;1.33;;;15.70;69.00;;;;;;5051902;28;20252;-63
2023/11/24 00:41:49;;;;;;;2.13;0.90;;;15.70;69.10;;;;;;5052785;28;20646;-64
2023/11/24 00:44:15;;;;;;;2.60;1.10;;;15.70;69.10;;;;;;5052221;28;20727;-64
2023/11/24 00:46:41;;;;;;;2.58;1.20;;;15.70;68.90;;;;;;5051993;28;20696;-64
2023/11/24 00:49:07;;;;;;;4.72;1.17;;;15.70;69.00;;;;;;5052749;28;20183;-63
2023/11/24 00:51:32;;;;;;;2.83;1.30;;;15.70;68.90;;;;;;5052048;28;20230;-63
2023/11/24 00:53:58;;;;;;;3.30;1.48;;;15.70;68.90;;;;;;5051835;28;20218;-63
2023/11/24 00:56:23;;;;;;;3.45;1.35;;;15.70;68.90;;;;;;5052141;28;20634;-64
2023/11/24 00:58:50;;;;;;;2.88;1.38;;;15.60;68.80;;;;;;5052390;28;20187;-63
2023/11/24 01:01:16;;;;;;;2.63;1.17;;;15.70;68.90;;;;;;5051414;28;20625;-63
2023/11/24 01:03:42;;;;;;;2.45;1.17;;;15.60;68.70;;;;;;5052263;28;20180;-63
2023/11/24 01:06:08;;;;;;;3.28;1.30;;;15.60;68.70;;;;;;5051598;28;20281;-63
2023/11/24 01:08:33;;;;;;;3.63;1.35;;;15.60;68.70;;;;;;5051938;28;20193;-63
2023/11/24 01:11:01;;;;;;;3.40;1.20;;;15.60;68.70;;;;;;5052220;28;20179;-63
2023/11/24 01:13:31;;;;;;;3.17;1.50;;;15.60;68.70;;;;;;5051151;28;20203;-62
2023/11/24 01:15:57;;;;;;;2.42;1.05;;;15.60;68.70;;;;;;5052338;28;20171;-63
2023/11/24 01:18:25;;;;;;;2.83;1.20;;;15.60;68.60;;;;;;5051875;28;20634;-62
2023/11/24 01:20:50;;;;;;;3.15;1.20;;;15.60;68.70;;;;;;5051504;28;20183;-63
2023/11/24 01:23:16;;;;;;;3.58;1.30;;;15.60;68.70;;;;;;5051822;28;20228;-63
2023/11/24 01:25:41;;;;;;;2.35;1.27;;;15.60;68.60;;;;;;5052038;28;20626;-64
2023/11/24 01:28:07;;;;;;;4.30;1.48;;;15.60;68.60;;;;;;5051294;28;20175;-63
2023/11/24 01:30:33;;;;;;;2.83;1.13;;;15.50;68.60;;;;;;5051692;28;20175;-64
2023/11/24 01:32:59;;;;;;;3.63;1.30;;;15.60;68.70;;;;;;5052121;28;20579;-63
2023/11/24 01:35:24;;;;;;;2.63;1.42;;;15.60;68.70;;;;;;5051131;28;20171;-63
2023/11/24 01:37:50;;;;;;;2.42;1.00;;;15.50;68.60;;;;;;5052031;28;20524;-63
2023/11/24 01:40:18;;;;;;;2.53;1.00;;;15.50;68.60;;;;;;5051731;28;20658;-65
2023/11/24 01:42:43;;;;;;;2.08;1.15;;;15.50;68.70;;;;;;5051311;28;20178;-63
2023/11/24 01:45:09;;;;;;;3.00;1.17;;;15.50;68.70;;;;;;5052228;28;20174;-64
2023/11/24 01:47:35;;;;;;;3.33;1.10;;;15.50;68.60;;;;;;5051219;28;20195;-64
2023/11/24 01:50:02;;;;;;;4.03;1.10;;;15.50;68.60;;;;;;5050980;28;20321;-63
2023/11/24 01:52:28;;;;;;;2.42;1.23;;;15.50;68.60;;;;;;5051601;28;20262;-64
2023/11/24 01:54:54;;;;;;;3.40;1.02;;;15.50;68.60;;;;;;5050628;28;20182;-63
2023/11/24 01:57:19;;;;;;;1.38;0.93;;;15.50;68.60;;;;;;5050921;28;20517;-64
2023/11/24 01:59:45;;;;;;;2.75;0.93;;;15.50;68.70;;;;;;5050860;28;20183;-64
2023/11/24 02:02:10;;;;;;;3.90;1.25;;;15.50;68.60;;;;;;5051826;28;20176;-62
2023/11/24 02:04:36;;;;;;;2.85;1.27;;;15.50;68.60;;;;;;5050961;28;20179;-66
2023/11/24 02:07:02;;;;;;;2.15;1.20;;;15.50;68.60;;;;;;5051767;28;20550;-63
2023/11/24 02:09:29;;;;;;;3.72;1.33;;;15.50;68.60;;;;;;5050684;28;20636;-63
2023/11/24 02:11:55;;;;;;;2.45;1.00;;;15.40;68.60;;;;;;5050579;28;20283;-63
2023/11/24 02:14:21;;;;;;;2.45;0.95;;;15.40;68.50;;;;;;5052928;28;20692;-62
2023/11/24 02:16:46;;;;;;;2.25;1.10;;;15.40;68.60;;;;;;5054939;28;20269;-63
2023/11/24 02:19:14;;;;;;;2.33;1.27;;;15.40;68.60;;;;;;5055574;28;20175;-62
2023/11/24 02:21:39;;;;;;;1.65;1.17;;;15.40;68.50;;;;;;5055428;28;20206;-63
2023/11/24 02:24:08;;;;;;;3.42;1.10;;;15.40;68.50;;;;;;5054571;28;20175;-63
2023/11/24 02:26:34;;;;;;;2.60;1.00;;;15.40;68.50;;;;;;5054926;28;20237;-62
2023/11/24 02:28:59;;;;;;;4.60;1.33;;;15.40;68.40;;;;;;5055278;28;20183;-63
2023/11/24 02:31:25;;;;;;;2.33;1.08;;;15.40;68.50;;;;;;5054325;28;20175;-63
2023/11/24 02:33:51;;;;;;;4.93;1.20;;;15.40;68.40;;;;;;5055048;28;20210;-63
2023/11/24 02:36:20;;;;;;;3.65;1.48;;;15.40;68.50;;;;;;5054886;28;20214;-63
2023/11/24 02:38:49;;;;;;;1.98;1.20;;;15.40;68.50;;;;;;5053297;28;20224;-63
2023/11/24 02:41:15;;;;;;;2.20;1.20;;;15.40;68.40;;;;;;5054718;28;20183;-64
2023/11/24 02:43:41;;;;;;;2.10;1.17;;;15.40;68.50;;;;;;5055204;28;20208;-64
2023/11/24 02:46:06;;;;;;;3.55;1.20;;;15.40;68.40;;;;;;5054297;28;20194;-64
2023/11/24 02:48:32;;;;;;;4.10;1.58;;;15.40;68.50;;;;;;5054733;28;20244;-64
2023/11/24 02:50:57;;;;;;;2.50;1.45;;;15.40;68.50;;;;;;5054744;28;20223;-64
2023/11/24 02:53:23;;;;;;;4.35;1.15;;;15.40;68.50;;;;;;5053671;28;20203;-64
2023/11/24 02:55:48;;;;;;;2.85;1.15;;;15.30;68.30;;;;;;5055061;28;20538;-63
2023/11/24 02:58:15;;;;;;;2.22;1.00;;;15.30;68.40;;;;;;5054274;28;20669;-63
2023/11/24 03:00:40;;;;;;;1.85;1.20;;;15.30;68.40;;;;;;5054182;28;20201;-64
2023/11/24 03:03:07;;;;;;;3.72;1.33;;;15.30;68.30;;;;;;5054738;28;20654;-63
2023/11/24 03:05:34;;;;;;;2.70;1.60;;;15.30;68.40;;;;;;5054214;28;20224;-63
2023/11/24 03:07:59;;;;;;;2.75;1.55;;;15.40;68.50;;;;;;5054110;28;20652;-63
2023/11/24 03:10:25;;;;;;;3.00;1.27;;;15.30;68.50;;;;;;5054464;28;20178;-63
2023/11/24 03:12:51;;;;;;;4.55;1.30;;;15.30;68.50;;;;;;5053864;28;20211;-63
2023/11/24 03:15:17;;;;;;;2.85;1.10;;;15.30;68.50;;;;;;5054247;28;20167;-63
2023/11/24 03:17:42;;;;;;;1.92;0.90;;;15.30;68.50;;;;;;5054433;28;20171;-63
2023/11/24 03:20:08;;;;;;;3.28;1.48;;;15.30;68.50;;;;;;5053653;28;20168;-62
2023/11/24 03:22:34;;;;;;;1.45;1.10;;;15.30;68.50;;;;;;5053880;28;20270;-63
2023/11/24 03:24:59;;;;;;;2.10;1.13;;;15.30;68.50;;;;;;5053387;28;20670;-63
2023/11/24 03:27:27;;;;;;;2.25;1.00;;;15.30;68.50;;;;;;5052742;28;20175;-62
2023/11/24 03:29:52;;;;;;;1.85;0.90;;;15.30;68.50;;;;;;5054282;28;20254;-63
2023/11/24 03:32:18;;;;;;;3.88;1.10;;;15.30;68.40;;;;;;5053763;28;20254;-62
2023/11/24 03:34:43;;;;;;;2.42;1.20;;;15.30;68.40;;;;;;5053293;28;20261;-63
2023/11/24 03:37:09;;;;;;;2.30;1.15;;;15.20;68.40;;;;;;5053911;28;20601;-63
2023/11/24 03:39:34;;;;;;;2.58;1.38;;;15.30;68.50;;;;;;5053945;28;20186;-64
2023/11/24 03:42:00;;;;;;;4.22;1.33;;;15.30;68.60;;;;;;5053467;28;20512;-64
2023/11/24 03:44:25;;;;;;;1.65;1.00;;;15.20;68.40;;;;;;5053427;28;20265;-63
2023/11/24 03:46:51;;;;;;;2.97;1.38;;;15.20;68.40;;;;;;5053742;28;20175;-65
2023/11/24 03:49:16;;;;;;;3.45;1.23;;;15.20;68.40;;;;;;5052853;28;20175;-65
2023/11/24 03:51:42;;;;;;;3.05;1.42;;;15.20;68.40;;;;;;5053240;28;20229;-64
2023/11/24 03:54:08;;;;;;;3.45;1.00;;;15.30;69.30;;;;;;5053727;28;20214;-64
2023/11/24 03:56:33;;;;;;;1.90;0.82;;;15.20;68.50;;;;;;5052825;28;20581;-64
2023/11/24 03:58:59;;;;;;;3.08;1.23;;;15.20;68.40;;;;;;5053728;28;20202;-64
2023/11/24 04:01:27;;;;;;;2.38;1.40;;;15.30;68.60;;;;;;5053209;28;20701;-63
2023/11/24 04:03:54;;;;;;;3.70;1.25;;;15.20;68.50;;;;;;5052826;28;20186;-64
2023/11/24 04:06:19;;;;;;;2.58;1.10;;;15.20;68.50;;;;;;5052975;28;20179;-64
2023/11/24 04:08:45;;;;;;;3.08;1.10;;;15.20;68.50;;;;;;5053548;28;20178;-63
2023/11/24 04:11:10;;;;;;;3.25;1.33;;;15.20;68.50;;;;;;5052675;28;20175;-64
2023/11/24 04:13:37;;;;;;;3.05;1.00;;;15.20;68.50;;;;;;5053023;28;20217;-63
2023/11/24 04:16:03;;;;;;;3.85;1.55;;;15.20;68.50;;;;;;5052643;28;20175;-64
2023/11/24 04:18:29;;;;;;;1.83;1.10;;;15.20;68.60;;;;;;5052926;28;20183;-63
2023/11/24 04:20:54;;;;;;;3.00;1.10;;;15.20;68.50;;;;;;5053097;28;20179;-63
2023/11/24 04:23:21;;;;;;;2.42;1.02;;;15.20;68.60;;;;;;5052173;28;20174;-64
2023/11/24 04:25:46;;;;;;;1.88;1.10;;;15.20;68.60;;;;;;5053116;28;20305;-64
2023/11/24 04:28:14;;;;;;;1.95;1.27;;;15.10;68.50;;;;;;5052964;28;20192;-64
2023/11/24 04:30:40;;;;;;;1.77;1.30;;;15.20;68.50;;;;;;5052386;28;20203;-63
2023/11/24 04:33:06;;;;;;;2.25;1.02;;;15.10;68.50;;;;;;5052770;28;20246;-63
2023/11/24 04:35:32;;;;;;;2.30;1.52;;;15.20;68.50;;;;;;5052338;28;20189;-64
2023/11/24 04:37:58;;;;;;;1.48;0.90;;;15.10;68.50;;;;;;5051879;28;20262;-63
2023/11/24 04:40:23;;;;;;;2.63;1.08;;;15.10;68.60;;;;;;5052609;28;20262;-64
2023/11/24 04:42:49;;;;;;;2.03;1.15;;;15.10;68.60;;;;;;5052820;28;20262;-64
2023/11/24 04:45:14;;;;;;;2.30;0.80;;;15.20;68.60;;;;;;5051827;28;20175;-64
2023/11/24 04:47:40;;;;;;;1.70;0.90;;;15.10;68.60;;;;;;5052786;28;20171;-64
2023/11/24 04:50:06;;;;;;;3.45;1.13;;;15.10;68.70;;;;;;5052435;28;20218;-63
2023/11/24 04:52:33;;;;;;;1.75;1.05;;;15.10;68.60;;;;;;5051652;28;20241;-64
2023/11/24 04:54:58;;;;;;;2.47;1.10;;;15.10;68.60;;;;;;5052526;28;20187;-63
2023/11/24 04:57:24;;;;;;;2.97;1.17;;;15.10;68.60;;;;;;5052232;28;20652;-64
2023/11/24 04:59:49;;;;;;;3.72;1.15;;;15.10;68.60;;;;;;5051849;28;20547;-63
2023/11/24 05:02:15;;;;;;;2.88;0.98;;;15.10;68.70;;;;;;5052125;28;20629;-63
2023/11/24 05:04:40;;;;;;;2.22;1.00;;;15.10;68.70;;;;;;5052287;28;20545;-63
2023/11/24 05:07:06;;;;;;;2.03;1.15;;;15.10;68.60;;;;;;5051689;28;20225;-63
2023/11/24 05:09:31;;;;;;;1.88;0.80;;;15.10;68.60;;;;;;5051856;28;20175;-64
2023/11/24 05:11:57;;;;;;;2.38;0.80;;;15.10;68.70;;;;;;5052270;28;20183;-63
2023/11/24 05:14:23;;;;;;;2.15;1.10;;;15.10;68.60;;;;;;5051210;28;20203;-63
2023/11/24 05:16:49;;;;;;;2.47;1.10;;;15.10;68.60;;;;;;5052083;28;20171;-64
2023/11/24 05:19:15;;;;;;;2.80;1.50;;;15.10;68.60;;;;;;5051019;28;20181;-63
2023/11/24 05:21:40;;;;;;;2.40;0.90;;;15.00;68.60;;;;;;5052378;28;20282;-63
2023/11/24 05:24:06;;;;;;;2.45;0.90;;;15.00;68.60;;;;;;5052270;28;20175;-63
2023/11/24 05:26:32;;;;;;;2.05;1.05;;;15.00;68.50;;;;;;5051290;28;20202;-63
2023/11/24 05:29:01;;;;;;;2.70;0.82;;;15.00;68.60;;;;;;5052061;28;20172;-64
2023/11/24 05:31:26;;;;;;;1.80;0.80;;;15.10;68.60;;;;;;5051671;28;20634;-63
2023/11/24 05:33:52;;;;;;;1.85;0.90;;;15.00;68.60;;;;;;5051153;28;20203;-64
2023/11/24 05:36:20;;;;;;;2.13;1.13;;;15.00;68.70;;;;;;5051848;28;20171;-63
2023/11/24 05:38:46;;;;;;;1.75;0.80;;;15.00;68.70;;;;;;5052127;28;20175;-64
2023/11/24 05:41:13;;;;;;;2.20;0.98;;;15.00;68.70;;;;;;5051160;28;20182;-64
2023/11/24 05:43:39;;;;;;;2.53;1.20;;;15.00;68.50;;;;;;5051884;28;20187;-64
2023/11/24 05:46:06;;;;;;;2.20;1.00;;;15.00;68.60;;;;;;5051901;28;20174;-64
2023/11/24 05:48:32;;;;;;;2.65;1.45;;;15.00;68.60;;;;;;5051195;28;20257;-65
2023/11/24 05:50:58;;;;;;;2.17;0.98;;;15.00;68.70;;;;;;5055844;28;20226;-63
2023/11/24 05:53:24;;;;;;;1.92;0.90;;;15.00;68.60;;;;;;5055603;28;20213;-63
2023/11/24 05:55:50;;;;;;;1.02;0.75;;;15.00;68.60;;;;;;5055262;28;20672;-63
2023/11/24 05:58:15;;;;;;;1.65;0.95;;;15.00;68.50;;;;;;5055587;28;20210;-64
2023/11/24 06:00:42;;;;;;;2.47;1.40;;;15.00;68.60;;;;;;5055675;28;20175;-64
2023/11/24 06:03:10;;;;;;;2.08;1.13;;;15.00;68.50;;;;;;5054858;28;20267;-63
2023/11/24 06:05:35;;;;;;;1.30;0.90;;;14.90;68.50;;;;;;5055586;28;20216;-62
2023/11/24 06:08:03;;;;;;;1.35;0.90;;;15.00;68.60;;;;;;5055739;28;20179;-63
2023/11/24 06:10:29;;;;;;;2.05;1.00;;;15.00;68.50;;;;;;5054747;28;20258;-64
2023/11/24 06:12:55;;;;;;;1.88;0.90;;;15.00;68.20;;;;;;5055391;28;20647;-64
2023/11/24 06:15:20;;;;;;;2.60;0.80;;;15.10;68.30;;;;;;5055031;28;20190;-64
2023/11/24 06:17:48;;;;;;;2.63;0.95;;;15.10;68.20;;;;;;5055185;28;20183;-64
2023/11/24 06:20:14;;;;;;;2.33;0.90;;;15.20;68.30;;;;;;5055290;28;20255;-64
2023/11/24 06:22:39;;;;;;;3.47;0.98;;;15.20;68.20;;;;;;5054796;28;20254;-64
2023/11/24 06:25:05;;;;;;;1.45;0.73;;;15.30;68.20;;;;;;5055471;28;20653;-64
2023/11/24 06:27:31;;;;;;;1.25;0.80;;;15.40;68.00;;;;;;5055018;28;20171;-64
2023/11/24 06:29:58;;;;;;;2.33;1.10;;;15.40;68.00;;;;;;5054582;28;20220;-64
2023/11/24 06:32:23;;;;;;;2.33;0.98;;;15.50;67.90;;;;;;5054900;28;20171;-64
2023/11/24 06:34:49;;;;;;;1.98;1.00;;;15.60;67.90;;;;;;5055313;28;20272;-64
2023/11/24 06:37:14;;;;;;;1.45;0.90;;;15.60;67.80;;;;;;5054310;28;20217;-64
2023/11/24 06:39:40;;;;;;;1.33;0.70;;;15.70;67.60;;;;;;5055116;28;20175;-65
2023/11/24 06:42:05;;;;;;;1.63;0.95;;;15.70;67.40;;;;;;5055029;28;20258;-65
2023/11/24 06:44:31;;;;;;;0.73;0.60;;;15.80;67.30;;;;;;5053988;28;20190;-65
2023/11/24 06:46:57;;;;;;;2.40;1.20;;;15.80;67.20;;;;;;5054865;28;20649;-65
2023/11/24 06:49:22;;;;;;;1.27;0.90;;;16.10;67.40;;;;;;5054808;28;20179;-65
2023/11/24 06:51:50;;;;;;;2.42;0.90;;;15.80;67.30;;;;;;5053941;28;20215;-64
2023/11/24 06:54:15;;;;;;;1.88;0.80;;;15.70;67.40;;;;;;5054490;28;20256;-65
2023/11/24 06:56:41;;;;;;;1.55;0.80;;;15.70;67.50;;;;;;5054829;28;20260;-65
2023/11/24 06:59:07;;;;;;;2.53;1.00;;;15.70;67.60;;;;;;5053989;28;20178;-65
2023/11/24 07:01:34;;;;;;;0.88;0.60;;;15.70;67.70;;;;;;5054141;28;20183;-64
2023/11/24 07:04:00;;;;;;;2.70;0.75;;;15.70;67.60;;;;;;5054383;28;20187;-64
2023/11/24 07:06:26;;;;;;;0.95;0.82;;;15.80;67.50;;;;;;5053569;28;20261;-65
2023/11/24 07:08:52;;;;;;;1.52;0.85;;;15.90;67.50;;;;;;5054356;28;20276;-64
2023/11/24 07:11:22;;;;;;;1.40;0.52;;;16.00;67.20;;;;;;5053970;28;20697;-64
2023/11/24 07:13:47;;;;;;;0.95;0.60;;;16.20;66.80;;;;;;5053650;28;20217;-64
2023/11/24 07:16:13;;;;;;;1.10;0.60;;;16.40;66.50;;;;;;5054404;28;20175;-63
2023/11/24 07:18:39;;;;;;;2.05;0.73;;;16.50;66.30;;;;;;5054518;28;20237;-63
2023/11/24 07:21:05;;;;;;;0.90;0.80;;;16.70;65.70;;;;;;5053735;28;20634;-65
2023/11/24 07:23:32;;;;;;;1.85;0.75;;;17.00;64.70;;;;;;5053983;28;20203;-64
2023/11/24 07:25:57;;;;;;;1.77;0.70;;;17.30;64.10;;;;;;5053519;28;20187;-64
2023/11/24 07:28:23;;;;;;;1.92;0.70;;;17.50;63.50;;;;;;5053817;28;20576;-63
2023/11/24 07:30:48;;;;;;;2.92;0.80;;;17.60;63.00;;;;;;5054055;28;20195;-64
2023/11/24 07:33:15;;;;;;;1.65;0.82;;;17.70;62.60;;;;;;5053201;28;20207;-64
2023/11/24 07:35:40;;;;;;;0.52;0.52;;;17.80;62.40;;;;;;5054143;28;20171;-64
2023/11/24 07:38:06;;;;;;;1.17;0.63;;;17.80;62.30;;;;;;5054024;28;20552;-64
2023/11/24 07:40:35;;;;;;;1.30;0.80;;;17.80;62.40;;;;;;5052999;28;20576;-63
2023/11/24 07:43:01;;;;;;;1.15;0.70;;;17.80;62.40;;;;;;5053746;28;20171;-64
2023/11/24 07:45:26;;;;;;;1.15;0.60;;;17.80;62.50;;;;;;5053750;28;20175;-65
2023/11/24 07:47:54;;;;;;;1.50;0.70;;;17.70;62.50;;;;;;5053262;28;20244;-64
2023/11/24 07:50:20;;;;;;;1.45;0.68;;;17.70;62.50;;;;;;5053287;28;20215;-64
2023/11/24 07:52:46;;;;;;;1.35;0.85;;;17.60;62.60;;;;;;5053804;28;20664;-64
2023/11/24 07:55:13;;;;;;;1.33;0.70;;;17.50;62.90;;;;;;5053067;28;20199;-64
2023/11/24 07:57:39;;;;;;;1.92;0.68;;;17.50;63.20;;;;;;5053650;28;20559;-65
2023/11/24 08:00:09;;;;;;;0.93;0.57;;;17.40;63.30;;;;;;5053799;28;20265;-64
2023/11/24 08:02:35;;;;;;;1.77;0.88;;;17.40;63.30;;;;;;5052604;28;20305;-63
2023/11/24 08:05:00;;;;;;;1.05;0.70;;;17.40;63.40;;;;;;5053606;28;20250;-64
2023/11/24 08:07:26;;;;;;;1.23;0.63;;;17.40;63.60;;;;;;5053199;28;20594;-65
2023/11/24 08:09:51;;;;;;;1.75;0.90;;;17.40;63.60;;;;;;5052412;28;20634;-65
2023/11/24 08:12:17;;;;;;;1.05;0.70;;;17.40;63.70;;;;;;5052094;28;20261;-65
2023/11/24 08:14:42;;;;;;;2.15;0.80;;;17.40;63.80;;;;;;5052756;28;20348;-63
2023/11/24 08:17:08;;;;;;;2.40;0.90;;;17.40;63.80;;;;;;5052558;28;20308;-65
2023/11/24 08:19:35;;;;;;;1.90;0.60;;;17.50;63.90;;;;;;5052999;28;20221;-64
2023/11/24 08:22:01;;;;;;;6.72;1.23;;;17.50;63.80;;;;;;5053107;28;20179;-64
2023/11/24 08:24:27;;;;;;;2.50;1.20;;;17.50;63.90;;;;;;5052066;28;20179;-64
2023/11/24 08:26:53;;;;;;;1.95;0.80;;;17.50;64.00;;;;;;5053010;28;20588;-67
2023/11/24 08:29:18;;;;;;;3.22;1.17;;;17.40;64.10;;;;;;5051649;28;20641;-64
2023/11/24 08:31:47;;;;;;;3.40;1.15;;;17.40;64.50;;;;;;5053113;28;20183;-63
2023/11/24 08:34:16;;;;;;;1.58;1.02;;;17.30;64.50;;;;;;5052915;28;20218;-65
2023/11/24 08:36:45;;;;;;;2.17;0.80;;;17.20;64.80;;;;;;5052274;28;20202;-64
2023/11/24 08:39:13;;;;;;;2.58;0.95;;;17.10;65.00;;;;;;5052797;28;20254;-64
2023/11/24 08:41:44;;;;;;;3.22;1.20;;;17.10;65.10;;;;;;5052841;28;20656;-64
2023/11/24 08:44:12;;;;;;;2.28;0.95;;;17.20;65.00;;;;;;5050547;28;20191;-64
2023/11/24 08:46:37;;;;;;;1.80;1.00;;;17.20;64.90;;;;;;5052423;28;20179;-64
2023/11/24 08:49:03;;;;;;;3.15;1.40;;;17.10;65.00;;;;;;5052774;28;20524;-64
2023/11/24 08:51:29;;;;;;;4.50;1.20;;;17.00;65.10;;;;;;5051239;28;20631;-64
2023/11/24 08:53:54;;;;;;;3.17;1.00;;;17.00;65.30;;;;;;5052155;28;20203;-64
2023/11/24 08:56:20;;;;;;;1.70;0.93;;;16.90;65.50;;;;;;5051749;28;20179;-64
2023/11/24 08:58:49;;;;;;;2.35;0.80;;;16.80;65.50;;;;;;5051716;28;20179;-65
2023/11/24 09:01:14;;;;;;;3.83;1.00;;;16.80;65.60;;;;;;5051915;28;20199;-64
2023/11/24 09:03:40;;;;;;;18.38;6.50;;;16.80;65.70;;;;;;5051971;28;20194;-64
2023/11/24 09:06:06;;;;;;;19.13;8.38;;;16.70;65.70;;;;;;5049981;28;20175;-64
2023/11/24 09:08:31;;;;;;;36.72;14.13;;;16.70;65.70;;;;;;5051947;28;20182;-64
2023/11/24 09:10:57;;;;;;;43.58;17.75;;;16.70;65.70;;;;;;5052385;28;20221;-64
2023/11/24 09:13:22;;;;;;;52.22;19.50;;;16.60;65.60;;;;;;5051229;28;20222;-63
2023/11/24 09:15:49;;;;;;;61.47;22.00;;;16.70;65.50;;;;;;5052287;28;20548;-64
2023/11/24 09:18:15;;;;;;;66.50;23.35;;;16.80;65.20;;;;;;5051674;28;20183;-63
2023/11/24 09:20:40;;;;;;;69.55;27.05;;;16.80;65.20;;;;;;5051439;28;20611;-63
2023/11/24 09:23:06;;;;;;;67.40;27.77;;;16.70;66.20;;;;;;5051306;28;20182;-64
2023/11/24 09:25:32;;;;;;;71.70;27.48;;;16.70;65.40;;;;;;5051019;28;20186;-64
2023/11/24 09:28:01;;;;;;;68.90;26.08;;;16.60;65.40;;;;;;5052251;28;20171;-64
2023/11/24 09:30:27;;;;;;;74.70;26.45;;;16.60;65.40;;;;;;5051585;28;20282;-64
2023/11/24 09:32:54;;;;;;;69.90;26.83;;;16.60;65.40;;;;;;5051177;28;20261;-63
2023/11/24 09:35:23;;;;;;;59.58;23.20;;;16.60;65.20;;;;;;5051589;28;20203;-64
2023/11/24 09:37:49;;;;;;;55.95;21.70;;;16.60;64.50;;;;;;5052107;28;20199;-64
2023/11/24 09:40:19;;;;;;;60.60;21.80;;;16.60;64.10;;;;;;5050924;28;20619;-65
2023/11/24 09:42:45;;;;;;;55.13;20.65;;;16.60;64.20;;;;;;5051763;28;20206;-64
2023/11/24 09:45:15;;;;;;;47.85;18.02;;;16.50;64.00;;;;;;5051880;28;20178;-64
2023/11/24 09:47:49;;;;;;;37.85;14.73;;;16.50;63.20;;;;;;5051026;28;20518;-64
2023/11/24 09:50:17;;;;;;;37.80;14.95;;;16.40;62.90;;;;;;5051215;28;20240;-65
2023/11/24 09:52:45;;;;;;;38.60;15.93;;;16.30;63.00;;;;;;5050496;28;20175;-64
2023/11/24 09:55:11;;;;;;;40.05;15.48;;;16.30;63.20;;;;;;5051020;28;20179;-63
2023/11/24 09:57:39;;;;;;;37.88;16.02;;;16.40;63.40;;;;;;5051570;28;20268;-65
2023/11/24 10:00:11;;;;;;;41.55;16.27;;;16.40;63.80;;;;;;5051609;28;20182;-67
2023/11/24 10:02:37;;;;;;;36.10;15.35;;;16.40;63.60;;;;;;5050573;28;20174;-68
2023/11/24 10:05:03;;;;;;;34.20;15.70;;;16.40;63.60;;;;;;5051857;28;20182;-67
2023/11/24 10:07:29;;;;;;;33.53;13.40;;;16.40;63.60;;;;;;5050289;28;20172;-67
2023/11/24 10:09:54;;;;;;;34.10;14.15;;;16.40;63.60;;;;;;5049754;28;20262;-64
2023/11/24 10:12:20;;;;;;;30.60;14.07;;;16.50;63.60;;;;;;5051382;28;20172;-64
2023/11/24 10:14:47;;;;;;;33.58;13.95;;;16.50;63.50;;;;;;5050508;28;20223;-65
2023/11/24 10:17:13;;;;;;;31.88;12.98;;;16.50;63.60;;;;;;5051302;28;20198;-63
2023/11/24 10:19:38;;;;;;;33.28;11.52;;;16.50;63.70;;;;;;5051328;28;20179;-63
2023/11/24 10:22:04;;;;;;;25.35;10.85;;;16.40;63.70;;;;;;5049485;28;20171;-63
2023/11/24 10:24:34;;;;;;;30.25;11.80;;;16.50;63.70;;;;;;5051150;28;20175;-63
2023/11/24 10:27:23;;;;;;;27.45;10.52;;;16.50;63.70;;;;;;5051461;28;20179;-63
2023/11/24 10:29:49;;;;;;;21.55;10.98;;;16.50;63.70;;;;;;5049903;28;20290;-64
2023/11/24 10:32:16;;;;;;;25.85;10.73;;;16.50;63.80;;;;;;5051073;28;20230;-68
2023/11/24 10:34:43;;;;;;;23.60;9.95;;;16.40;64.10;;;;;;5052046;28;20211;-64
2023/11/24 10:37:15;;;;;;;25.95;10.35;;;16.50;64.20;;;;;;5054301;28;20642;-63
2023/11/24 10:39:43;;;;;;;25.70;9.55;;;16.40;64.00;;;;;;5053815;28;20634;-63
2023/11/24 10:42:09;;;;;;;18.02;8.93;;;16.40;63.90;;;;;;5054816;28;20709;-63
2023/11/24 10:44:38;;;;;;;17.95;8.80;;;16.40;63.90;;;;;;5052447;28;20270;-63
2023/11/24 10:47:04;;;;;;;16.92;8.20;;;16.50;63.70;;;;;;5053270;28;20737;-63
2023/11/24 10:50:10;;;;;;;20.80;8.20;;;16.50;63.60;;;;;;5052803;28;20225;-63
2023/11/24 10:52:41;;;;;;;19.23;7.00;;;16.50;63.50;;;;;;5032021;28;21079;-63
2023/11/24 10:55:10;;;;;;;16.83;7.43;;;16.50;63.50;;;;;;5030795;28;20242;-63
2023/11/24 10:57:36;;;;;;;15.25;6.90;;;16.60;63.30;;;;;;5052496;28;20214;-63
2023/11/24 11:00:03;;;;;;;13.10;6.80;;;16.50;63.20;;;;;;5054762;28;20673;-63
2023/11/24 11:02:28;;;;;;;13.52;6.90;;;16.50;63.50;;;;;;5054403;28;20187;-63
2023/11/24 11:05:19;;;;;;;15.50;6.55;;;16.40;63.90;;;;;;5052684;28;20516;-62
2023/11/24 11:08:13;;;;;;;17.52;7.28;;;16.30;64.10;;;;;;5054607;28;20751;-63
2023/11/24 11:10:45;;;;;;;12.52;6.35;;;16.30;64.30;;;;;;5053502;28;20259;-63
2023/11/24 11:13:11;;;;;;;14.48;6.88;;;16.30;64.30;;;;;;5053630;28;20245;-63
2023/11/24 11:15:38;;;;;;;17.20;6.88;;;16.40;64.20;;;;;;5052761;28;20179;-63
2023/11/24 11:18:14;;;;;;;15.48;6.38;;;16.40;64.00;;;;;;5053792;28;20215;-63
2023/11/24 11:20:44;;;;;;;10.52;5.32;;;16.50;64.10;;;;;;5054695;28;20534;-62
2023/11/24 11:23:10;;;;;;;15.38;6.13;;;16.50;64.00;;;;;;5054219;28;20180;-62
2023/11/24 11:25:35;;;;;;;13.85;6.20;;;16.40;64.00;;;;;;5053201;28;20171;-62
2023/11/24 11:28:19;;;;;;;13.02;6.18;;;16.50;64.10;;;;;;5054053;28;20171;-62
2023/11/24 11:30:48;;;;;;;12.50;6.00;;;16.50;64.20;;;;;;5054202;28;20183;-62
2023/11/24 11:33:14;;;;;;;11.85;5.68;;;16.50;64.10;;;;;;5052868;28;20199;-63
2023/11/24 11:35:44;;;;;;;13.20;6.15;;;16.40;64.10;;;;;;5053883;28;20179;-63
2023/11/24 11:38:14;;;;;;;16.50;5.68;;;16.50;64.10;;;;;;5053871;28;20608;-63
2023/11/24 11:40:44;;;;;;;14.50;5.45;;;16.40;64.10;;;;;;5051882;28;20183;-63
2023/11/24 11:43:10;;;;;;;14.23;5.82;;;16.40;64.20;;;;;;5053936;28;20179;-63
2023/11/24 11:45:48;;;;;;;10.73;5.20;;;16.30;64.30;;;;;;5053319;28;20585;-63
2023/11/24 11:48:14;;;;;;;11.50;4.90;;;16.30;64.50;;;;;;5052262;28;20179;-63
2023/11/24 11:50:56;;;;;;;13.25;5.60;;;16.30;64.60;;;;;;5053553;28;20306;-63
2023/11/24 11:53:25;;;;;;;12.63;5.60;;;16.30;64.50;;;;;;5051450;28;20682;-63
2023/11/24 11:56:06;;;;;;;13.30;5.05;;;16.40;64.20;;;;;;5052178;28;20178;-63
2023/11/24 11:58:34;;;;;;;11.07;5.47;;;16.40;64.20;;;;;;5053371;28;20176;-63
2023/11/24 12:01:06;;;;;;;12.30;5.05;;;16.40;64.10;;;;;;5052790;28;20492;-62
2023/11/24 12:03:32;;;;;;;9.05;4.60;;;16.40;64.20;;;;;;5053079;28;20179;-62
2023/11/24 12:06:02;;;;;;;8.05;4.50;;;16.30;64.40;;;;;;5052365;28;20179;-63
2023/11/24 12:08:28;;;;;;;11.65;4.95;;;16.30;64.70;;;;;;5052371;28;20186;-63
2023/11/24 12:10:53;;;;;;;10.68;5.18;;;16.20;64.80;;;;;;5053435;28;20172;-63
2023/11/24 12:13:21;;;;;;;9.50;4.50;;;16.20;64.80;;;;;;5052877;28;20571;-63
2023/11/24 12:15:47;;;;;;;9.45;4.57;;;16.20;64.80;;;;;;5052511;28;20261;-63
2023/11/24 12:18:14;;;;;;;9.38;4.30;;;16.20;64.70;;;;;;5052177;28;20164;-63
2023/11/24 12:20:39;;;;;;;9.98;4.85;;;16.20;64.70;;;;;;5053247;28;20233;-62
2023/11/24 12:23:05;;;;;;;10.65;3.83;;;16.20;64.70;;;;;;5051398;28;20175;-63
2023/11/24 12:25:30;;;;;;;10.82;4.35;;;16.20;64.60;;;;;;5051586;28;20242;-62
2023/11/24 12:28:12;;;;;;;10.63;4.30;;;16.20;64.60;;;;;;5051784;28;20710;-63
2023/11/24 12:30:41;;;;;;;8.75;4.18;;;16.20;64.70;;;;;;5051867;28;20198;-63
2023/11/24 12:33:19;;;;;;;10.10;4.18;;;16.10;64.70;;;;;;5052666;28;20522;-63
2023/11/24 12:35:48;;;;;;;13.07;4.50;;;16.10;64.90;;;;;;5052263;28;20174;-63
2023/11/24 12:38:15;;;;;;;8.55;4.55;;;16.10;65.00;;;;;;5052381;28;20193;-63
2023/11/24 12:40:42;;;;;;;7.68;4.43;;;16.00;65.20;;;;;;5052622;28;20586;-64